• Join FlightAware (Why Join?)
  • Login
  • US Flag 
10:17PM EDT


 

Airport Tracker/Info


-or-


 

Live Flight TrackerFlight Track Log ✈ C-GSCW ✈ 22-Jul-2013 ✈ CYQG - CYKZ

Flight Track Log - Related Links

Times and Time Zones

All times are in EDT time to prevent confusion due to time zone crossing. See the C-GSCW flight status page for this flight to view local times or setup timezone preferences in your user account.

Time Position Orientation Groundspeed Altitude Reporting Facility
EDT Latitude Longitude Course Direction KTS MPH feet Rate Location/Type
02:35PM 42.2669 -82.9542 124° Southeast 85 98 900  Level Cleveland Center
02:36PM 42.2569 -82.9342 124° Southeast 102 117 1,400 720 Climbing Cleveland Center
02:37PM 42.2472 -82.8972 110° East 106 122 2,100 720 Climbing Cleveland Center
02:38PM 42.2336 -82.8492 111° Southeast 107 123 3,100 780 Climbing Cleveland Center
02:39PM 42.2364 -82.8128 84° East 123 142 3,700 660 Climbing Cleveland Center
02:40PM 42.2475 -82.7739 69° East 124 143 4,400 600 Climbing Cleveland Center
02:41PM 42.2608 -82.7267 69° East 113 130 5,000 540 Climbing Cleveland Center
02:42PM 42.2700 -82.6906 71° East 119 137 5,600 540 Climbing Cleveland Center
02:43PM 42.2853 -82.6461 65° Northeast 119 137 6,100 480 Climbing Cleveland Center
02:44PM 42.3047 -82.6103 54° Northeast 119 137 6,600 480 Climbing Cleveland Center
02:45PM 42.3200 -82.5686 64° Northeast 119 137 7,100 240 Climbing Cleveland Center
02:46PM 42.3356 -82.5214 66° East 119 137 7,100  Level Cleveland Center
02:47PM 42.3550 -82.4714 62° Northeast 129 148 7,100  Level Cleveland Center
02:48PM 42.3747 -82.4242 61° Northeast 139 160 7,100 -60 Level Cleveland Center
02:49PM 42.4003 -82.3769 54° Northeast 144 166 7,000 -60 Descending Cleveland Center
02:50PM 42.4261 -82.3300 53° Northeast 149 171 7,000  Level Cleveland Center
02:52PM 42.4672 -82.2242 62° Northeast 149 171 7,100  Climbing Cleveland Center
02:53PM 42.4908 -82.1769 56° Northeast 149 171 7,100  Level Cleveland Center
02:54PM 42.5122 -82.1267 60° Northeast 149 171 7,100  Level Cleveland Center
02:55PM 42.5381 -82.0739 56° Northeast 154 177 7,100  Level Cleveland Center
02:56PM 42.5658 -82.0236 53° Northeast 154 177 7,100  Level Cleveland Center
02:57PM 42.5894 -81.9736 57° Northeast 154 177 7,100 -60 Level Cleveland Center
02:58PM 42.6169 -81.9233 53° Northeast 159 183 7,000 -60 Descending Cleveland Center
02:59PM 42.6406 -81.8703 59° Northeast 159 183 7,000  Level Cleveland Center
03:00PM 42.6703 -81.8256 48° Northeast 164 189 7,000  Level Cleveland Center
03:01PM 42.6936 -81.7725 59° Northeast 164 189 7,000  Level Cleveland Center
03:02PM 42.7214 -81.7192 55° Northeast 164 189 7,000  Level Cleveland Center
03:03PM 42.7489 -81.6717 52° Northeast 172 198 7,000  Level Cleveland Center
03:04PM 42.7786 -81.6128 55° Northeast 172 198 7,000  Level Cleveland Center
03:05PM 42.8042 -81.5650 54° Northeast 166 191 7,000  Level Cleveland Center
03:07PM 42.8333 -81.4500 71° East 170 196 7,000  Level Toronto Center
03:08PM 42.8667 -81.4000 48° Northeast 170 196 7,000  Level Toronto Center
03:09PM 42.9000 -81.3667 36° Northeast 170 196 7,000  Level Toronto Center
03:10PM 42.9167 -81.3167 66° East 170 196 7,000  Level Toronto Center
03:11PM 42.9500 -81.2500 56° Northeast 170 196 7,000  Level Toronto Center
03:12PM 42.9667 -81.2000 65° Northeast 170 196 7,000  Level Toronto Center
03:13PM 43.0000 -81.1667 36° Northeast 170 196 7,000  Level Toronto Center
03:14PM 43.0167 -81.1000 71° East 170 196 7,000  Level Toronto Center
03:15PM 43.0500 -81.0500 48° Northeast 170 196 7,100  Climbing Toronto Center
03:16PM 43.0667 -81.0000 65° Northeast 170 196 7,000 -120 Descending Toronto Center
03:17PM 43.1000 -80.9333 56° Northeast 170 196 6,900  Descending Toronto Center
03:18PM 43.1333 -80.8833 48° Northeast 170 196 7,000  Climbing Toronto Center
03:19PM 43.1500 -80.8500 56° Northeast 170 196 7,000  Level Toronto Center
03:20PM 43.2000 -80.7833 44° Northeast 170 196 7,100  Climbing Toronto Center
03:21PM 43.2333 -80.7333 48° Northeast 170 196 7,000 -60 Descending Toronto Center
03:22PM 43.2667 -80.7167 20° North 170 196 7,000 -300 Level Toronto Center
03:23PM 43.3167 -80.6667 36° Northeast 180 207 6,500 -480 Descending Toronto Center
03:24PM 43.3500 -80.6167 47° Northeast 190 219 6,100 -480 Descending Toronto Center
03:25PM 43.4000 -80.5667 36° Northeast 190 219 5,600 -480 Descending Toronto Center
03:26PM 43.4333 -80.5500 20° North 190 219 5,200 -360 Descending Toronto Center
03:27PM 43.4833 -80.5000 36° Northeast 190 219 4,900 -120 Descending Toronto Center
03:28PM 43.5167 -80.4667 36° Northeast 170 196 5,000  Climbing Toronto Center
03:29PM 43.5500 -80.4333 36° Northeast 160 184 5,000  Level Toronto Center
03:30PM 43.6000 -80.4000 26° Northeast 160 184 5,100  Climbing Toronto Center
03:31PM 43.6333 -80.3667 36° Northeast 160 184 5,100  Level Toronto Center
03:32PM 43.6667 -80.3167 47° Northeast 170 196 5,100 -60 Level Toronto Center
03:33PM 43.7000 -80.2833 36° Northeast 170 196 5,000 -60 Descending Toronto Center
03:34PM 43.7333 -80.2333 47° Northeast 170 196 5,000  Level Toronto Center
03:35PM 43.7833 -80.2167 14° North 170 196 5,000  Level Toronto Center
03:36PM 43.8167 -80.1667 47° Northeast 160 184 5,000  Level Toronto Center
03:37PM 43.8500 -80.1167 47° Northeast 170 196 5,000  Level Toronto Center
03:38PM 43.8833 -80.1000 20° North 160 184 5,100  Climbing Toronto Center
03:39PM 43.9333 -80.0500 36° Northeast 170 196 5,000  Descending Toronto Center
03:40PM 43.9667 -80.0333 20° North 170 196 5,100 -180 Climbing Toronto Center
03:41PM 43.9667 -79.9500 90° East 160 184 4,700 -480 Descending Toronto Center
03:42PM 43.9667 -79.8833 90° East 180 207 4,200 -360 Descending Toronto Center
03:43PM 43.9667 -79.8333 90° East 170 196 4,000 -120 Descending Toronto Center
03:44PM 43.9833 -79.7667 71° East 160 184 4,000 -240 Level Toronto Center
03:45PM 43.9833 -79.7000 90° East 160 184 3,600 -540 Descending Toronto Center
03:46PM 43.9833 -79.6333 90° East 170 196 3,000 -300 Descending Toronto Center
03:47PM 44.0000 -79.5833 65° Northeast 140 161 3,100  Climbing Toronto Center
03:48PM 44.0000 -79.5333 90° East 130 150 3,100 -60 Level Toronto Center
03:49PM 43.9833 -79.5000 125° Southeast 120 138 3,000 -300 Descending Toronto Center
03:50PM 43.9667 -79.4667 125° Southeast 110 127 2,600 -420 Descending Toronto Center
03:51PM 43.9333 -79.4500 160° South 110 127 2,200 -300 Descending Toronto Center
03:52PM 43.9167 -79.4167 125° Southeast 90 104 2,000 -180 Descending Toronto Center
03:53PM 43.9000 -79.4000 144° Southeast 100 115 1,900 -300 Descending Toronto Center
03:54PM 43.8833 -79.3833 144° Southeast 90 104 1,500 -540 Descending Toronto Center
03:55PM 43.8667 -79.3500 125° Southeast 80 92 900 -600 Descending Toronto Center